createdAt,value
2023-01-04T00:02:22.458Z,5.05
2023-01-04T00:04:53.914Z,6.32
2023-01-04T00:07:25.388Z,5.35
2023-01-04T00:09:56.900Z,4.45
2023-01-04T00:12:28.311Z,5.13
2023-01-04T00:14:59.790Z,7.60
2023-01-04T00:17:31.237Z,8.40
2023-01-04T00:20:02.716Z,6.85
2023-01-04T00:22:34.462Z,5.68
2023-01-04T00:25:06.203Z,5.30
2023-01-04T00:27:37.654Z,6.10
2023-01-04T00:30:09.576Z,5.18
2023-01-04T00:32:41.011Z,4.72
2023-01-04T00:35:27.098Z,5.28
2023-01-04T00:38:03.908Z,6.67
2023-01-04T00:40:35.421Z,7.28
2023-01-04T00:43:06.846Z,5.35
2023-01-04T00:45:38.359Z,6.45
2023-01-04T00:48:09.808Z,8.50
2023-01-04T00:50:41.244Z,7.47
2023-01-04T00:53:13.832Z,5.18
2023-01-04T00:55:45.805Z,7.75
2023-01-04T00:58:17.519Z,6.80
2023-01-04T01:00:48.948Z,4.15
2023-01-04T01:03:20.478Z,4.83
2023-01-04T01:05:51.991Z,6.50
2023-01-04T01:08:23.450Z,4.83
2023-01-04T01:10:55.420Z,5.35
2023-01-04T01:13:26.884Z,3.70
2023-01-04T01:16:03.777Z,5.30
2023-01-04T01:18:36.326Z,4.20
2023-01-04T01:21:14.433Z,4.90
2023-01-04T01:23:47.162Z,3.57
2023-01-04T01:26:21.105Z,4.30
2023-01-04T01:28:52.965Z,4.78
2023-01-04T01:31:26.735Z,4.03
2023-01-04T01:33:58.239Z,4.03
2023-01-04T01:36:29.638Z,4.65
2023-01-04T01:39:01.121Z,3.85
2023-01-04T01:41:34.927Z,3.22
2023-01-04T01:44:43.456Z,3.13
2023-01-04T01:47:19.332Z,5.32
2023-01-04T01:49:53.943Z,5.28
2023-01-04T01:52:30.937Z,3.15
2023-01-04T01:55:09.348Z,4.40
2023-01-04T01:57:41.690Z,4.60
2023-01-04T02:00:15.271Z,4.22
2023-01-04T02:03:14.950Z,4.22
2023-01-04T02:05:50.234Z,3.90
2023-01-04T02:08:24.254Z,4.40
2023-01-04T02:10:56.057Z,3.88
2023-01-04T02:13:30.503Z,3.72
2023-01-04T02:16:15.390Z,4.20
2023-01-04T02:19:31.540Z,4.68
2023-01-04T02:22:21.438Z,4.65
2023-01-04T02:25:04.997Z,3.53
2023-01-04T02:27:39.467Z,2.45
2023-01-04T02:30:16.980Z,3.50
2023-01-04T02:33:28.404Z,3.53
2023-01-04T02:36:07.494Z,4.53
2023-01-04T02:39:03.364Z,4.25
2023-01-04T02:41:41.505Z,4.70
2023-01-04T02:44:19.058Z,3.13
2023-01-04T02:46:57.210Z,4.28
2023-01-04T02:49:28.695Z,4.93
2023-01-04T02:52:00.270Z,3.42
2023-01-04T02:54:33.411Z,3.40
2023-01-04T02:57:19.241Z,3.38
2023-01-04T03:00:09.381Z,4.10
2023-01-04T03:02:46.768Z,2.15
2023-01-04T03:05:48.425Z,3.55
2023-01-04T03:08:32.059Z,3.10
2023-01-04T03:11:09.347Z,2.42
2023-01-04T03:13:44.249Z,2.55
2023-01-04T03:16:21.428Z,3.33
2023-01-04T03:18:56.167Z,2.13
2023-01-04T03:21:28.404Z,2.83
2023-01-04T03:24:01.531Z,4.80
2023-01-04T03:26:36.084Z,2.80
2023-01-04T03:29:13.902Z,2.33
2023-01-04T03:32:18.515Z,2.88
2023-01-04T03:34:50.332Z,2.80
2023-01-04T03:37:39.142Z,2.60
2023-01-04T03:40:10.495Z,2.15
2023-01-04T03:43:17.420Z,5.00
2023-01-04T03:45:53.738Z,3.38
2023-01-04T03:48:36.934Z,3.10
2023-01-04T03:51:18.133Z,2.88
2023-01-04T03:53:59.469Z,2.15
2023-01-04T03:56:33.239Z,3.47
2023-01-04T03:59:05.491Z,4.50
2023-01-04T04:01:37.373Z,4.60
2023-01-04T04:04:09.209Z,3.35
2023-01-04T04:06:40.856Z,6.85
2023-01-04T04:09:12.314Z,5.90
2023-01-04T04:11:43.806Z,5.93
2023-01-04T04:14:15.509Z,9.55
2023-01-04T04:16:47.153Z,7.22
2023-01-04T04:19:18.699Z,7.18
2023-01-04T04:21:50.158Z,9.15
2023-01-04T04:24:24.987Z,7.03
2023-01-04T04:26:56.444Z,10.40
2023-01-04T04:29:27.910Z,9.63
2023-01-04T04:31:59.545Z,8.65
2023-01-04T04:34:31.097Z,9.27
2023-01-04T04:37:02.629Z,9.63
2023-01-04T04:39:34.052Z,8.83
2023-01-04T04:42:05.473Z,9.40
2023-01-04T04:44:36.871Z,6.95
2023-01-04T04:47:08.361Z,8.40
2023-01-04T04:49:39.809Z,6.63
2023-01-04T04:52:11.282Z,7.32
2023-01-04T04:54:42.700Z,7.88
2023-01-04T04:57:14.135Z,6.18
2023-01-04T04:59:45.639Z,5.22
2023-01-04T05:02:17.307Z,4.68
2023-01-04T05:04:48.818Z,5.53
2023-01-04T05:07:20.223Z,4.70
2023-01-04T05:09:51.683Z,3.67
2023-01-04T05:12:23.135Z,4.13
2023-01-04T05:14:54.594Z,4.13
2023-01-04T05:17:26.032Z,6.60
2023-01-04T05:19:57.481Z,3.10
2023-01-04T05:22:28.886Z,4.22
2023-01-04T05:25:00.308Z,3.60
2023-01-04T05:27:31.767Z,5.13
2023-01-04T05:30:04.892Z,3.25
2023-01-04T05:32:36.353Z,2.85
2023-01-04T05:35:08.130Z,4.07
2023-01-04T05:37:39.573Z,3.28
2023-01-04T05:40:11.535Z,3.03
2023-01-04T05:42:43.369Z,3.17
2023-01-04T05:45:16.086Z,5.25
2023-01-04T05:47:52.207Z,4.05
2023-01-04T05:50:24.187Z,4.63
2023-01-04T05:52:55.596Z,4.05
2023-01-04T05:55:27.034Z,5.03
2023-01-04T05:57:58.488Z,3.58
2023-01-04T06:00:30.496Z,5.47
2023-01-04T06:03:02.072Z,5.07
2023-01-04T06:05:33.598Z,5.90
2023-01-04T06:08:05.453Z,8.60
2023-01-04T06:10:36.874Z,6.63
2023-01-04T06:13:08.383Z,7.53
2023-01-04T06:15:43.175Z,7.53
2023-01-04T06:18:15.057Z,14.57
2023-01-04T06:20:46.529Z,10.13
2023-01-04T06:23:17.982Z,12.02
2023-01-04T06:25:49.429Z,10.88
2023-01-04T06:28:20.829Z,12.73
2023-01-04T06:30:52.326Z,10.02
2023-01-04T06:33:23.831Z,14.15
2023-01-04T06:35:56.071Z,14.27
2023-01-04T06:38:28.068Z,16.23
2023-01-04T06:40:59.664Z,19.73
2023-01-04T06:43:31.085Z,17.95
2023-01-04T06:46:02.559Z,20.90
2023-01-04T06:48:33.997Z,17.33
2023-01-04T06:51:05.664Z,20.05
2023-01-04T06:53:37.265Z,19.40
2023-01-04T06:56:08.749Z,20.30
2023-01-04T06:58:40.198Z,15.57
2023-01-04T07:01:11.769Z,17.58
2023-01-04T07:03:43.235Z,15.05
2023-01-04T07:06:14.702Z,16.45
2023-01-04T07:08:46.929Z,15.73
2023-01-04T07:11:18.384Z,14.95
2023-01-04T07:13:49.832Z,14.02
2023-01-04T07:16:21.282Z,15.68
2023-01-04T07:18:52.708Z,12.73
2023-01-04T07:21:24.108Z,13.57
2023-01-04T07:23:56.488Z,15.48
2023-01-04T07:26:28.155Z,16.73
2023-01-04T07:28:59.591Z,16.80
2023-01-04T07:31:31.262Z,15.13
2023-01-04T07:34:02.753Z,15.95
2023-01-04T07:36:34.207Z,13.77
2023-01-04T07:39:06.000Z,15.25
2023-01-04T07:41:38.355Z,11.73
2023-01-04T07:44:10.850Z,14.77
2023-01-04T07:46:42.382Z,12.18
2023-01-04T07:49:17.875Z,15.90
2023-01-04T07:51:50.307Z,13.98
2023-01-04T07:54:21.839Z,15.30
2023-01-04T07:56:53.334Z,19.77
2023-01-04T07:59:24.880Z,26.17
2023-01-04T08:01:56.518Z,30.35
2023-01-04T08:04:34.397Z,29.10
2023-01-04T08:07:06.511Z,33.92
2023-01-04T08:09:38.000Z,43.67
2023-01-04T08:12:09.419Z,34.55
2023-01-04T08:14:44.326Z,33.73
2023-01-04T08:17:15.766Z,27.73
2023-01-04T08:19:47.207Z,27.80
2023-01-04T08:22:18.624Z,24.97
2023-01-04T08:24:50.071Z,28.95
2023-01-04T08:27:21.468Z,33.45
2023-01-04T08:29:52.929Z,38.27
2023-01-04T08:32:24.438Z,45.45
2023-01-04T08:34:55.920Z,43.00
2023-01-04T08:37:27.383Z,39.78
2023-01-04T08:39:58.797Z,43.45
2023-01-04T08:42:31.763Z,43.53
2023-01-04T08:45:04.409Z,40.15
2023-01-04T08:47:35.818Z,41.17
2023-01-04T08:50:10.647Z,46.85
2023-01-04T08:52:42.970Z,36.70
2023-01-04T08:55:17.754Z,31.73
2023-01-04T08:57:51.520Z,35.72
2023-01-04T09:00:23.161Z,29.55
2023-01-04T09:02:55.209Z,31.77
2023-01-04T09:05:26.803Z,28.55
2023-01-04T09:08:00.131Z,30.33
2023-01-04T09:10:31.852Z,29.45
2023-01-04T09:13:03.337Z,29.85
2023-01-04T09:15:35.980Z,26.90
2023-01-04T09:18:32.049Z,34.92
2023-01-04T09:20:58.888Z,35.40
2023-01-04T09:23:30.885Z,29.67
2023-01-04T09:26:22.403Z,35.38
2023-01-04T09:28:55.352Z,38.10
2023-01-04T09:31:28.859Z,32.90
2023-01-04T09:34:17.354Z,31.63
2023-01-04T09:36:49.522Z,45.75
2023-01-04T09:39:23.434Z,38.30
2023-01-04T09:41:57.809Z,36.47
2023-01-04T09:48:11.152Z,35.92
2023-01-04T09:50:58.191Z,41.55
2023-01-04T09:53:40.906Z,33.47
2023-01-04T09:56:26.479Z,35.95
2023-01-04T09:59:01.676Z,38.60
2023-01-04T10:01:52.387Z,30.55
2023-01-04T10:04:46.509Z,24.73
2023-01-04T10:07:27.768Z,29.52
2023-01-04T10:10:00.368Z,27.70
2023-01-04T10:12:43.108Z,22.52
2023-01-04T10:15:30.059Z,21.70
2023-01-04T10:21:34.132Z,25.63
2023-01-04T10:24:10.785Z,20.83
2023-01-04T10:26:46.860Z,19.40
2023-01-04T10:29:49.259Z,18.95
2023-01-04T10:32:40.396Z,15.50
2023-01-04T10:35:24.245Z,18.15
2023-01-04T10:37:59.089Z,17.00
2023-01-04T10:40:36.323Z,16.95
2023-01-04T10:43:07.741Z,14.87
2023-01-04T10:46:02.350Z,24.33
2023-01-04T10:48:45.792Z,21.27
2023-01-04T10:51:26.776Z,20.35
2023-01-04T10:54:08.173Z,17.33
2023-01-04T10:57:00.159Z,19.10
2023-01-04T10:59:41.526Z,20.50
2023-01-04T11:02:22.509Z,24.33
2023-01-04T11:05:15.805Z,23.40
2023-01-04T11:07:53.668Z,22.88
2023-01-04T11:10:40.731Z,25.88
2023-01-04T11:13:12.419Z,21.98
2023-01-04T11:15:45.388Z,21.80
2023-01-04T11:18:17.147Z,21.03
2023-01-04T11:20:48.707Z,26.15
2023-01-04T11:23:20.767Z,23.25
2023-01-04T11:25:57.602Z,26.67
2023-01-04T11:28:37.053Z,22.90
2023-01-04T11:31:08.480Z,25.52
2023-01-04T11:33:57.795Z,30.15
2023-01-04T11:36:34.000Z,27.40
2023-01-04T11:39:17.209Z,27.63
2023-01-04T11:42:04.589Z,27.03
2023-01-04T11:44:36.152Z,32.65
2023-01-04T11:47:23.424Z,31.90
2023-01-04T11:49:56.760Z,36.28
2023-01-04T11:52:36.824Z,29.20
2023-01-04T11:55:23.256Z,34.45
2023-01-04T11:58:10.104Z,36.83
2023-01-04T12:00:57.219Z,33.55
2023-01-04T12:03:31.433Z,31.33
2023-01-04T12:06:03.042Z,28.05
2023-01-04T12:08:35.827Z,30.07
2023-01-04T12:11:19.400Z,30.83
2023-01-04T12:13:51.433Z,25.48
2023-01-04T12:16:45.452Z,29.27
2023-01-04T12:19:19.035Z,30.05
2023-01-04T12:21:58.202Z,28.42
2023-01-04T12:24:34.690Z,29.48
2023-01-04T12:27:14.269Z,31.35
2023-01-04T12:29:55.918Z,25.35
2023-01-04T12:32:27.348Z,25.42
2023-01-04T12:34:58.923Z,22.40
2023-01-04T12:37:39.282Z,30.90
2023-01-04T12:40:44.851Z,27.80
2023-01-04T12:43:16.314Z,25.02
2023-01-04T12:45:47.917Z,25.80
2023-01-04T12:48:28.710Z,28.02
2023-01-04T12:51:32.226Z,25.02
2023-01-04T12:54:05.596Z,25.02
2023-01-04T12:57:11.690Z,27.38
2023-01-04T12:59:56.998Z,30.17
2023-01-04T13:02:30.696Z,27.20
2023-01-04T13:05:53.248Z,27.20
2023-01-04T13:07:57.926Z,27.80
2023-01-04T13:10:36.685Z,27.50
2023-01-04T13:13:41.910Z,25.60
2023-01-04T13:16:25.358Z,26.58
2023-01-04T13:18:59.230Z,25.88
2023-01-04T13:21:42.693Z,26.60
2023-01-04T13:24:19.844Z,26.20
2023-01-04T13:26:52.285Z,25.65
2023-01-04T13:29:25.527Z,26.35
2023-01-04T13:32:12.813Z,34.83
2023-01-04T13:34:51.260Z,24.88
2023-01-04T13:37:33.251Z,28.05
2023-01-04T13:40:27.350Z,27.50
2023-01-04T13:43:23.576Z,27.65
2023-01-04T13:46:22.195Z,24.85
2023-01-04T13:49:00.018Z,20.93
2023-01-04T13:51:37.214Z,23.60
2023-01-04T13:54:23.591Z,24.08
2023-01-04T13:57:08.572Z,22.85
2023-01-04T13:59:39.978Z,19.83
2023-01-04T14:02:21.954Z,24.92
2023-01-04T14:04:53.559Z,22.77
2023-01-04T14:07:25.141Z,22.42
2023-01-04T14:09:59.435Z,26.25
2023-01-04T14:12:30.931Z,26.73
2023-01-04T14:15:24.374Z,26.00
2023-01-04T14:17:56.982Z,27.67
2023-01-04T14:20:34.149Z,23.85
2023-01-04T14:23:05.597Z,28.48
2023-01-04T14:25:42.005Z,28.75
2023-01-04T14:28:19.274Z,26.20
2023-01-04T14:31:00.006Z,27.05
2023-01-04T14:33:37.689Z,27.98
2023-01-04T14:36:09.354Z,32.25
2023-01-04T14:38:45.191Z,26.70
2023-01-04T14:41:21.216Z,27.87
2023-01-04T14:44:01.420Z,27.67
2023-01-04T14:46:32.922Z,32.03
2023-01-04T14:49:04.891Z,31.23
2023-01-04T14:51:41.251Z,32.28
2023-01-04T14:54:18.871Z,34.08
2023-01-04T14:56:55.464Z,39.17
2023-01-04T14:59:27.158Z,34.00
2023-01-04T15:01:58.808Z,41.25
2023-01-04T15:04:30.420Z,36.92
2023-01-04T15:07:02.111Z,33.53
2023-01-04T15:09:33.556Z,36.65
2023-01-04T15:12:05.038Z,39.35
2023-01-04T15:14:36.506Z,37.63
2023-01-04T15:17:07.918Z,38.20
2023-01-04T15:19:39.314Z,38.97
2023-01-04T15:22:10.751Z,42.38
2023-01-04T15:24:42.166Z,36.63
2023-01-04T15:27:13.625Z,36.45
2023-01-04T15:29:45.014Z,37.13
2023-01-04T15:32:16.524Z,41.23
2023-01-04T15:34:51.921Z,45.95
2023-01-04T15:37:24.104Z,44.72
2023-01-04T15:40:01.949Z,42.07
2023-01-04T15:42:34.489Z,39.10
2023-01-04T15:45:06.870Z,37.63
2023-01-04T15:47:38.301Z,42.15
2023-01-04T15:50:09.828Z,37.70
2023-01-04T15:52:41.291Z,43.60
2023-01-04T15:55:13.558Z,39.47
2023-01-04T15:57:44.973Z,39.88
2023-01-04T16:00:16.746Z,44.30
2023-01-04T16:02:48.355Z,40.28
2023-01-04T16:05:20.065Z,37.10
2023-01-04T16:07:51.521Z,46.33
2023-01-04T16:10:23.034Z,40.23
2023-01-04T16:12:56.967Z,46.25
2023-01-04T16:15:28.679Z,42.30
2023-01-04T16:18:00.110Z,47.15
2023-01-04T16:20:31.557Z,42.25
2023-01-04T16:23:02.958Z,46.28
2023-01-04T16:25:34.364Z,40.25
2023-01-04T16:28:05.755Z,40.17
2023-01-04T16:30:37.185Z,39.22
2023-01-04T16:33:08.634Z,38.53
2023-01-04T16:35:40.081Z,37.90
2023-01-04T16:38:11.563Z,43.58
2023-01-04T16:40:42.996Z,41.15
2023-01-04T16:43:14.460Z,45.55
2023-01-04T16:45:45.863Z,41.05
2023-01-04T16:48:18.711Z,37.38
2023-01-04T16:50:50.313Z,43.53
2023-01-04T16:53:21.753Z,41.80
2023-01-04T16:55:53.257Z,41.72
2023-01-04T16:58:24.720Z,40.47
2023-01-04T17:00:56.179Z,45.10
2023-01-04T17:03:27.624Z,45.00
2023-01-04T17:05:59.135Z,49.28
2023-01-04T17:08:30.566Z,50.35
2023-01-04T17:12:04.960Z,50.13
2023-01-04T17:14:05.821Z,46.78
2023-01-04T17:16:37.233Z,49.23
2023-01-04T17:19:09.632Z,53.65
2023-01-04T17:21:41.058Z,46.00
2023-01-04T17:24:13.125Z,46.07
2023-01-04T17:26:44.622Z,53.35
2023-01-04T17:29:16.025Z,54.85
2023-01-04T17:31:47.478Z,52.80
2023-01-04T17:34:22.976Z,54.63
2023-01-04T17:36:54.800Z,61.58
2023-01-04T17:39:26.356Z,55.55
2023-01-04T17:41:58.458Z,60.08
2023-01-04T17:44:29.838Z,59.30
2023-01-04T17:47:01.270Z,60.75
2023-01-04T17:49:32.802Z,64.60
2023-01-04T17:52:05.494Z,66.47
2023-01-04T17:54:38.450Z,60.72
2023-01-04T17:57:09.881Z,60.65
2023-01-04T17:59:41.561Z,62.95
2023-01-04T18:02:13.027Z,65.43
2023-01-04T18:04:44.517Z,67.25
2023-01-04T18:07:15.947Z,62.47
2023-01-04T18:09:47.355Z,65.07
2023-01-04T18:12:18.852Z,61.97
2023-01-04T18:14:50.324Z,58.55
2023-01-04T18:17:21.916Z,63.03
2023-01-04T18:19:53.409Z,65.38
2023-01-04T18:22:24.890Z,59.30
2023-01-04T18:24:56.317Z,58.22
2023-01-04T18:27:27.768Z,55.58
2023-01-04T18:29:59.197Z,63.70
2023-01-04T18:32:30.627Z,56.80
2023-01-04T18:35:02.195Z,57.40
2023-01-04T18:37:35.075Z,56.65
2023-01-04T18:40:07.169Z,55.08
2023-01-04T18:42:38.609Z,54.83
2023-01-04T18:45:10.466Z,55.05
2023-01-04T18:47:42.192Z,50.10
2023-01-04T18:50:15.686Z,54.30
2023-01-04T18:52:47.179Z,54.40
2023-01-04T18:55:18.614Z,52.58
2023-01-04T18:57:50.080Z,52.35
2023-01-04T19:00:21.650Z,55.88
2023-01-04T19:02:53.134Z,48.13
2023-01-04T19:05:25.475Z,56.40
2023-01-04T19:07:56.860Z,58.92
2023-01-04T19:10:28.304Z,60.00
2023-01-04T19:12:59.751Z,56.20
2023-01-04T19:15:31.181Z,54.72
2023-01-04T19:18:02.620Z,54.43
2023-01-04T19:20:34.026Z,54.65
2023-01-04T19:23:06.201Z,49.40
2023-01-04T19:25:41.609Z,55.85
2023-01-04T19:28:13.449Z,55.63
2023-01-04T19:30:44.910Z,55.00
2023-01-04T19:33:16.635Z,49.22
2023-01-04T19:35:48.307Z,58.35
2023-01-04T19:38:19.758Z,50.00
2023-01-04T19:40:55.602Z,56.53
2023-01-04T19:43:27.028Z,54.67
2023-01-04T19:45:58.582Z,53.67
2023-01-04T19:48:30.997Z,53.08
2023-01-04T19:51:07.854Z,53.38
2023-01-04T19:53:40.317Z,51.97
2023-01-04T19:56:13.237Z,43.13
2023-01-04T19:58:44.705Z,49.65
2023-01-04T20:01:18.632Z,46.75
2023-01-04T20:03:51.367Z,48.17
2023-01-04T20:06:22.858Z,47.35
2023-01-04T20:08:54.302Z,44.87
2023-01-04T20:11:25.747Z,51.15
2023-01-04T20:13:57.507Z,53.45
2023-01-04T20:16:29.036Z,43.95
2023-01-04T20:19:00.558Z,49.38
2023-01-04T20:21:32.086Z,47.38
2023-01-04T20:24:03.744Z,53.85
2023-01-04T20:26:35.839Z,47.58
2023-01-04T20:29:07.615Z,45.88
2023-01-04T20:31:45.210Z,46.47
2023-01-04T20:34:17.199Z,56.25
2023-01-04T20:36:48.595Z,51.50
2023-01-04T20:39:19.999Z,48.90
2023-01-04T20:41:51.441Z,46.05
2023-01-04T20:44:22.948Z,48.22
2023-01-04T20:46:54.547Z,47.30
2023-01-04T20:49:26.276Z,42.90
2023-01-04T20:51:57.754Z,44.80
2023-01-04T20:54:29.179Z,47.08
2023-01-04T20:57:00.615Z,46.10
2023-01-04T20:59:32.268Z,46.55
2023-01-04T21:02:03.862Z,46.33
2023-01-04T21:04:35.392Z,39.83
2023-01-04T21:07:06.853Z,47.75
2023-01-04T21:09:38.279Z,45.85
2023-01-04T21:12:09.818Z,44.28
2023-01-04T21:14:41.236Z,43.20
2023-01-04T21:17:12.647Z,48.43
2023-01-04T21:19:44.252Z,44.25
2023-01-04T21:22:15.710Z,51.70
2023-01-04T21:24:47.172Z,48.88
2023-01-04T21:27:18.647Z,47.60
2023-01-04T21:29:51.381Z,44.37
2023-01-04T21:32:22.807Z,44.55
2023-01-04T21:34:54.237Z,51.30
2023-01-04T21:37:25.671Z,43.28
2023-01-04T21:39:57.082Z,47.03
2023-01-04T21:42:28.553Z,46.47
2023-01-04T21:45:00.014Z,46.90
2023-01-04T21:47:31.980Z,46.97
2023-01-04T21:50:04.333Z,45.83
2023-01-04T21:52:35.786Z,51.23
2023-01-04T21:55:08.252Z,44.92
2023-01-04T21:57:39.795Z,45.17
2023-01-04T22:00:11.970Z,47.47
2023-01-04T22:02:43.568Z,47.92
2023-01-04T22:05:15.141Z,42.88
2023-01-04T22:07:46.595Z,43.88
2023-01-04T22:10:18.092Z,43.38
2023-01-04T22:12:49.553Z,43.30
2023-01-04T22:15:21.004Z,41.83
2023-01-04T22:17:52.446Z,44.22
2023-01-04T22:20:23.963Z,43.63
2023-01-04T22:22:55.382Z,39.67
2023-01-04T22:25:26.881Z,41.07
2023-01-04T22:27:58.317Z,49.03
2023-01-04T22:30:29.792Z,45.85
2023-01-04T22:33:01.198Z,47.55
2023-01-04T22:35:32.665Z,47.58
2023-01-04T22:38:04.104Z,45.97
2023-01-04T22:40:38.953Z,47.63
2023-01-04T22:43:10.427Z,50.43
2023-01-04T22:45:41.894Z,41.70
2023-01-04T22:48:13.316Z,48.63
2023-01-04T22:50:44.718Z,53.13
2023-01-04T22:53:16.104Z,46.47
2023-01-04T22:56:17.656Z,48.83
2023-01-04T22:58:39.845Z,44.65
2023-01-04T23:01:12.148Z,41.40
2023-01-04T23:03:43.783Z,43.78
2023-01-04T23:06:15.386Z,44.15
2023-01-04T23:08:46.841Z,50.38
2023-01-04T23:11:19.939Z,45.30
2023-01-04T23:13:51.705Z,44.08
2023-01-04T23:16:29.525Z,46.70
2023-01-04T23:19:05.610Z,42.95
2023-01-04T23:21:37.089Z,45.35
2023-01-04T23:24:12.628Z,48.43
2023-01-04T23:26:44.767Z,48.38
2023-01-04T23:29:16.304Z,43.25
2023-01-04T23:31:47.997Z,47.63
2023-01-04T23:34:19.503Z,44.75
2023-01-04T23:36:50.917Z,47.50
2023-01-04T23:39:22.372Z,47.22
2023-01-04T23:41:53.852Z,44.15
2023-01-04T23:44:28.147Z,47.38
2023-01-04T23:49:36.706Z,45.17
2023-01-04T23:52:08.169Z,52.25
2023-01-04T23:54:39.569Z,43.42
2023-01-04T23:57:10.971Z,46.53
2023-01-04T23:59:42.366Z,47.15
